RJAZ(METAR)
10/19 16:00
RJAZ 190700Z 05019G38KT 4000 RA BKN006 OVC009 15/13 Q1013 RMK A2993=
戻る
トップページへ戻る
IMOC Co,.Ltd.